createdAt,value
2023-07-16T00:01:02.617Z,7.10
2023-07-16T00:03:29.927Z,7.53
2023-07-16T00:05:57.038Z,7.50
2023-07-16T00:08:24.320Z,9.48
2023-07-16T00:10:51.317Z,9.35
2023-07-16T00:13:18.379Z,7.43
2023-07-16T00:15:45.431Z,7.55
2023-07-16T00:18:12.623Z,7.90
2023-07-16T00:20:39.688Z,7.75
2023-07-16T00:23:06.732Z,9.15
2023-07-16T00:25:33.787Z,8.85
2023-07-16T00:28:00.954Z,7.63
2023-07-16T00:30:28.014Z,9.00
2023-07-16T00:32:55.145Z,8.10
2023-07-16T00:35:22.221Z,7.25
2023-07-16T00:37:49.481Z,8.00
2023-07-16T00:40:16.689Z,7.68
2023-07-16T00:42:43.821Z,7.10
2023-07-16T00:45:15.848Z,8.32
2023-07-16T00:47:44.669Z,8.18
2023-07-16T00:50:13.309Z,6.75
2023-07-16T00:52:41.045Z,10.45
2023-07-16T00:55:09.123Z,7.93
2023-07-16T00:57:36.457Z,7.43
2023-07-16T01:00:06.714Z,7.25
2023-07-16T01:02:34.061Z,8.82
2023-07-16T01:05:01.599Z,7.63
2023-07-16T01:07:31.982Z,7.20
2023-07-16T01:10:00.269Z,8.30
2023-07-16T01:12:29.017Z,7.65
2023-07-16T01:14:57.975Z,7.60
2023-07-16T01:17:24.972Z,9.38
2023-07-16T01:19:52.034Z,7.13
2023-07-16T01:22:31.332Z,7.88
2023-07-16T01:25:10.482Z,9.48
2023-07-16T01:27:58.616Z,9.05
2023-07-16T01:30:29.404Z,7.78
2023-07-16T01:32:58.242Z,8.47
2023-07-16T01:35:27.245Z,9.15
2023-07-16T01:37:54.459Z,8.73
2023-07-16T01:40:21.478Z,9.07
2023-07-16T01:42:48.569Z,10.45
2023-07-16T01:45:15.651Z,8.37
2023-07-16T01:48:06.588Z,7.68
2023-07-16T01:50:33.712Z,9.80
2023-07-16T01:53:00.798Z,9.68
2023-07-16T01:55:27.873Z,7.90
2023-07-16T01:57:56.957Z,10.90
2023-07-16T02:00:24.183Z,9.10
2023-07-16T02:02:54.074Z,9.85
2023-07-16T02:05:21.274Z,7.57
2023-07-16T02:07:48.300Z,9.30
2023-07-16T02:10:15.482Z,10.47
2023-07-16T02:12:42.639Z,8.60
2023-07-16T02:15:10.046Z,8.00
2023-07-16T02:17:37.804Z,8.65
2023-07-16T02:20:08.292Z,8.85
2023-07-16T02:22:37.019Z,9.50
2023-07-16T02:25:05.128Z,8.82
2023-07-16T02:27:32.507Z,10.77
2023-07-16T02:29:59.665Z,8.52
2023-07-16T02:32:26.810Z,8.52
2023-07-16T02:34:53.824Z,9.00
2023-07-16T02:37:20.896Z,10.32
2023-07-16T02:39:49.075Z,8.40
2023-07-16T02:42:16.142Z,8.73
2023-07-16T02:44:45.997Z,10.85
2023-07-16T02:47:13.548Z,8.90
2023-07-16T02:49:41.053Z,7.88
2023-07-16T02:52:08.606Z,9.10
2023-07-16T02:54:37.622Z,9.63
2023-07-16T02:57:06.708Z,10.02
2023-07-16T02:59:33.779Z,8.33
2023-07-16T03:02:01.776Z,7.82
2023-07-16T03:04:28.848Z,9.10
2023-07-16T03:06:55.887Z,10.55
2023-07-16T03:09:23.755Z,10.00
2023-07-16T03:11:50.768Z,8.63
2023-07-16T03:14:19.206Z,8.07
2023-07-16T03:16:46.319Z,7.63
2023-07-16T03:19:13.452Z,8.88
2023-07-16T03:21:40.648Z,8.07
2023-07-16T03:24:07.729Z,8.47
2023-07-16T03:26:35.975Z,8.10
2023-07-16T03:29:03.339Z,8.85
2023-07-16T03:31:30.623Z,7.72
2023-07-16T03:33:58.225Z,10.75
2023-07-16T03:36:28.900Z,8.93
2023-07-16T03:38:55.997Z,13.85
2023-07-16T03:41:23.090Z,12.27
2023-07-16T03:43:50.397Z,9.63
2023-07-16T03:46:20.389Z,12.57
2023-07-16T03:48:48.345Z,8.97
2023-07-16T03:51:15.818Z,9.50
2023-07-16T03:53:42.940Z,9.02
2023-07-16T03:56:10.055Z,10.50
2023-07-16T03:58:37.168Z,8.85
2023-07-16T04:01:15.294Z,9.13
2023-07-16T04:03:45.866Z,9.80
2023-07-16T04:06:15.691Z,8.57
2023-07-16T04:08:42.898Z,10.48
2023-07-16T04:11:10.047Z,8.57
2023-07-16T04:13:39.417Z,7.83
2023-07-16T04:16:06.616Z,9.32
2023-07-16T04:18:33.752Z,10.00
2023-07-16T04:21:00.833Z,8.23
2023-07-16T04:23:27.904Z,9.50
2023-07-16T04:25:56.848Z,7.40
2023-07-16T04:28:24.267Z,7.90
2023-07-16T04:30:51.372Z,8.50
2023-07-16T04:33:20.540Z,8.93
2023-07-16T04:35:47.718Z,8.70
2023-07-16T04:38:14.793Z,9.33
2023-07-16T04:40:43.846Z,8.00
2023-07-16T04:43:10.831Z,8.88
2023-07-16T04:45:37.913Z,8.65
2023-07-16T04:48:05.438Z,7.72
2023-07-16T04:50:32.600Z,7.40
2023-07-16T04:52:59.619Z,9.00
2023-07-16T04:55:26.815Z,8.10
2023-07-16T04:57:54.880Z,8.27
2023-07-16T05:00:21.958Z,8.95
2023-07-16T05:02:49.563Z,8.67
2023-07-16T05:05:16.696Z,7.63
2023-07-16T05:07:43.750Z,9.43
2023-07-16T05:10:11.244Z,8.93
2023-07-16T05:12:39.521Z,7.72
2023-07-16T05:15:07.175Z,11.17
2023-07-16T05:17:34.498Z,11.00
2023-07-16T05:20:01.738Z,7.72
2023-07-16T06:48:56.393Z,8.48
2023-07-16T06:51:23.766Z,10.70
2023-07-16T06:54:03.273Z,7.00
2023-07-16T07:00:12.259Z,10.98
2023-07-16T07:02:49.014Z,15.82
2023-07-16T07:05:16.458Z,12.85
2023-07-16T07:07:44.527Z,9.20
2023-07-16T07:10:12.662Z,11.27
2023-07-16T07:12:39.962Z,8.23
2023-07-16T07:44:40.430Z,7.13
2023-07-16T07:47:11.601Z,7.45
2023-07-16T07:50:11.660Z,9.27
2023-07-16T07:52:55.319Z,6.32
2023-07-16T07:55:26.056Z,8.17
2023-07-16T07:58:05.317Z,5.60
2023-07-16T08:00:45.959Z,7.95
2023-07-16T08:07:53.922Z,7.45
2023-07-16T08:10:26.750Z,7.13
2023-07-16T08:17:27.659Z,6.95
2023-07-16T08:19:54.870Z,9.95
2023-07-16T08:22:25.056Z,8.80
2023-07-16T08:24:52.994Z,8.57
2023-07-16T08:27:20.892Z,7.93
2023-07-16T08:29:48.126Z,6.97
2023-07-16T08:32:15.298Z,7.43
2023-07-16T08:34:42.452Z,8.23
2023-07-16T08:37:09.550Z,8.33
2023-07-16T08:39:36.675Z,8.65
2023-07-16T08:42:04.270Z,8.43
2023-07-16T08:44:32.068Z,10.02
2023-07-16T08:46:59.891Z,10.15
2023-07-16T08:49:30.856Z,10.93
2023-07-16T08:51:58.498Z,8.35
2023-07-16T08:54:27.025Z,10.32
2023-07-16T08:56:54.582Z,8.88
2023-07-16T08:59:22.890Z,9.85
2023-07-16T09:01:52.780Z,7.77
2023-07-16T09:04:20.442Z,12.07
2023-07-16T09:06:47.660Z,9.88
2023-07-16T09:09:23.341Z,9.50
2023-07-16T09:11:50.778Z,10.88
2023-07-16T09:14:22.316Z,12.60
2023-07-16T09:16:54.037Z,10.27
2023-07-16T09:19:22.425Z,10.07
2023-07-16T09:21:50.944Z,9.73
2023-07-16T09:24:21.286Z,11.70
2023-07-16T09:26:54.790Z,11.70
2023-07-16T09:29:22.308Z,14.10
2023-07-16T09:32:07.967Z,12.98
2023-07-16T09:34:35.220Z,14.73
2023-07-16T09:37:04.311Z,10.10
2023-07-16T09:39:33.561Z,11.30
2023-07-16T09:42:00.720Z,11.63
2023-07-16T09:44:28.254Z,11.30
2023-07-16T09:46:55.878Z,10.23
2023-07-16T09:49:23.114Z,14.25
2023-07-16T09:51:53.340Z,13.87
2023-07-16T09:54:21.487Z,12.30
2023-07-16T09:56:52.186Z,12.10
2023-07-16T09:59:24.828Z,12.75
2023-07-16T10:01:53.641Z,9.63
2023-07-16T10:04:22.375Z,13.20
2023-07-16T10:06:56.948Z,17.27
2023-07-16T10:09:43.458Z,13.05
2023-07-16T10:12:19.580Z,12.85
2023-07-16T10:14:54.537Z,12.73
2023-07-16T10:17:23.676Z,12.63
2023-07-16T10:20:14.261Z,12.48
2023-07-16T10:22:44.125Z,13.15
2023-07-16T10:25:24.449Z,14.95
2023-07-16T10:27:52.838Z,15.30
2023-07-16T10:30:20.680Z,13.03
2023-07-16T10:32:48.265Z,13.50
2023-07-16T10:35:16.209Z,12.85
2023-07-16T10:37:43.521Z,16.30
2023-07-16T10:40:15.056Z,11.75
2023-07-16T10:42:44.607Z,13.37
2023-07-16T10:45:12.136Z,13.30
2023-07-16T10:47:41.602Z,12.60
2023-07-16T10:50:10.995Z,11.50
2023-07-16T10:52:41.430Z,13.60
2023-07-16T10:55:09.166Z,12.00
2023-07-16T10:57:36.896Z,14.65
2023-07-16T11:00:05.107Z,12.82
2023-07-16T11:02:32.486Z,13.45
2023-07-16T11:05:02.318Z,12.40
2023-07-16T11:07:29.789Z,12.23
2023-07-16T11:09:57.058Z,13.07
2023-07-16T11:12:25.348Z,13.65
2023-07-16T11:14:56.699Z,13.00
2023-07-16T11:17:28.624Z,14.10
2023-07-16T11:19:56.863Z,15.13
2023-07-16T11:22:28.451Z,14.05
2023-07-16T11:24:56.114Z,16.80
2023-07-16T11:27:27.751Z,14.75
2023-07-16T11:29:59.779Z,19.58
2023-07-16T11:32:38.325Z,20.00
2023-07-16T11:35:07.710Z,19.30
2023-07-16T11:37:36.585Z,17.00
2023-07-16T11:40:11.593Z,16.75
2023-07-16T11:42:43.314Z,14.82
2023-07-16T11:45:21.743Z,14.47
2023-07-16T11:47:48.961Z,17.08
2023-07-16T11:50:16.431Z,14.27
2023-07-16T11:52:43.609Z,17.15
2023-07-16T11:55:10.868Z,16.70
2023-07-16T11:57:38.020Z,14.20
2023-07-16T12:00:06.137Z,13.90
2023-07-16T12:02:33.899Z,13.80
2023-07-16T12:05:04.442Z,14.55
2023-07-16T12:07:39.008Z,14.27
2023-07-16T12:10:08.078Z,14.20
2023-07-16T12:12:39.693Z,13.90
2023-07-16T12:15:08.656Z,14.30
2023-07-16T12:17:36.035Z,15.38
2023-07-16T12:20:07.473Z,14.00
2023-07-16T12:22:34.733Z,14.30
2023-07-16T12:25:03.909Z,13.68
2023-07-16T12:27:31.145Z,14.93
2023-07-16T12:29:58.378Z,14.75
2023-07-16T12:32:25.558Z,13.77
2023-07-16T12:34:52.800Z,14.30
2023-07-16T12:37:20.002Z,14.40
2023-07-16T12:39:47.192Z,14.25
2023-07-16T12:42:14.404Z,14.75
2023-07-16T12:44:42.005Z,15.70
2023-07-16T12:47:10.204Z,15.10
2023-07-16T12:49:37.700Z,13.70
2023-07-16T12:52:05.242Z,14.65
2023-07-16T12:54:34.964Z,14.80
2023-07-16T12:57:02.136Z,15.93
2023-07-16T12:59:29.335Z,14.43
2023-07-16T13:01:57.210Z,13.98
2023-07-16T13:04:24.396Z,15.13
2023-07-16T13:06:51.619Z,14.35
2023-07-16T13:09:18.751Z,14.25
2023-07-16T13:11:47.162Z,16.20
2023-07-16T13:14:14.203Z,15.75
2023-07-16T13:16:41.463Z,15.50
2023-07-16T13:19:08.720Z,16.05
2023-07-16T13:21:38.799Z,13.48
2023-07-16T13:24:06.367Z,14.10
2023-07-16T13:26:33.611Z,13.27
2023-07-16T13:29:00.842Z,13.10
2023-07-16T13:31:28.238Z,13.20
2023-07-16T13:33:55.460Z,14.30
2023-07-16T13:36:22.738Z,14.33
2023-07-16T13:38:49.999Z,13.20
2023-07-16T13:41:17.169Z,13.77
2023-07-16T13:43:44.307Z,14.40
2023-07-16T13:46:11.410Z,12.65
2023-07-16T13:48:56.448Z,15.47
2023-07-16T13:51:25.393Z,14.70
2023-07-16T13:53:52.455Z,13.52
2023-07-16T13:56:20.234Z,14.57
2023-07-16T13:58:51.539Z,15.45
2023-07-16T14:01:19.596Z,14.17
2023-07-16T14:03:47.136Z,13.23
2023-07-16T14:06:15.594Z,12.88
2023-07-16T14:08:43.018Z,11.80
2023-07-16T14:11:10.205Z,13.52
2023-07-16T14:13:37.370Z,13.67
2023-07-16T14:16:09.825Z,13.40
2023-07-16T14:18:37.478Z,13.27
2023-07-16T14:21:05.570Z,14.00
2023-07-16T14:23:32.710Z,13.07
2023-07-16T14:25:59.853Z,13.83
2023-07-16T14:28:27.068Z,13.30
2023-07-16T14:30:54.155Z,13.38
2023-07-16T14:33:22.374Z,13.88
2023-07-16T14:35:49.617Z,12.60
2023-07-16T14:38:16.750Z,14.00
2023-07-16T14:40:43.978Z,13.63
2023-07-16T14:43:11.241Z,16.65
2023-07-16T14:45:38.961Z,16.40
2023-07-16T14:48:06.865Z,14.15
2023-07-16T14:50:34.005Z,12.93
2023-07-16T14:53:01.221Z,13.88
2023-07-16T14:55:28.303Z,15.30
2023-07-16T14:57:55.550Z,15.15
2023-07-16T15:00:23.016Z,15.65
2023-07-16T15:02:50.323Z,16.03
2023-07-16T15:05:17.511Z,15.57
2023-07-16T15:07:44.655Z,15.23
2023-07-16T15:10:12.026Z,15.48
2023-07-16T15:12:41.999Z,16.50
2023-07-16T15:15:12.032Z,17.50
2023-07-16T15:17:39.211Z,15.68
2023-07-16T15:20:07.956Z,15.50
2023-07-16T15:22:35.430Z,16.50
2023-07-16T15:25:05.093Z,16.73
2023-07-16T15:27:32.451Z,16.00
2023-07-16T15:30:00.021Z,16.00
2023-07-16T15:32:28.910Z,17.35
2023-07-16T15:35:03.011Z,17.92
2023-07-16T19:12:16.926Z,16.60
2023-07-16T19:15:16.560Z,16.83
2023-07-16T19:22:34.585Z,16.67
2023-07-16T19:25:05.658Z,17.48
2023-07-16T19:27:33.251Z,17.70
2023-07-16T19:30:02.337Z,18.90
2023-07-16T19:32:30.887Z,18.67
2023-07-16T19:34:58.169Z,18.42
2023-07-16T19:37:25.507Z,16.23
2023-07-16T19:39:56.040Z,19.88
2023-07-16T19:42:25.719Z,19.80
2023-07-16T19:44:59.660Z,21.90
2023-07-16T19:47:27.495Z,20.45
2023-07-16T19:50:07.184Z,20.52
2023-07-16T19:52:35.959Z,20.13
2023-07-16T19:55:03.702Z,20.83
2023-07-16T19:57:35.508Z,22.55
2023-07-16T20:00:03.159Z,24.65
2023-07-16T20:02:40.759Z,26.33
2023-07-16T20:05:08.473Z,37.13
2023-07-16T20:07:36.649Z,30.77
2023-07-16T20:10:10.706Z,27.58
2023-07-16T20:12:38.745Z,27.30
2023-07-16T20:15:09.634Z,29.00
2023-07-16T20:17:36.991Z,26.95
2023-07-16T20:20:11.425Z,25.23
2023-07-16T20:22:42.170Z,22.48
2023-07-16T20:25:10.524Z,22.40
2023-07-16T20:27:38.325Z,22.20
2023-07-16T20:30:13.497Z,21.77
2023-07-16T20:32:54.026Z,22.57
2023-07-16T20:35:22.151Z,22.70
2023-07-16T20:37:51.920Z,22.63
2023-07-16T20:40:20.185Z,19.65
2023-07-16T20:42:47.706Z,21.85
2023-07-16T20:45:19.224Z,23.03
2023-07-16T20:47:51.989Z,20.85
2023-07-16T20:50:21.947Z,22.55
2023-07-16T20:52:57.893Z,19.77
2023-07-16T20:55:26.750Z,19.58
2023-07-16T20:57:55.682Z,20.63
2023-07-16T21:00:27.769Z,21.58
2023-07-16T22:56:00.944Z,19.40
2023-07-16T22:58:28.224Z,19.55
2023-07-16T23:00:55.399Z,18.50
2023-07-16T23:03:22.764Z,23.60
2023-07-16T23:05:50.044Z,18.35
2023-07-16T23:08:17.244Z,19.77
2023-07-16T23:10:44.382Z,19.88
2023-07-16T23:13:11.608Z,19.73
2023-07-16T23:15:41.447Z,18.38
2023-07-16T23:18:10.498Z,24.45
2023-07-16T23:20:37.669Z,19.15
2023-07-16T23:23:05.015Z,21.15
2023-07-16T23:25:37.886Z,19.83
2023-07-16T23:28:09.221Z,21.35
2023-07-16T23:30:36.946Z,23.83
2023-07-16T23:33:07.247Z,21.50
2023-07-16T23:35:35.372Z,21.90
2023-07-16T23:38:03.645Z,21.57
2023-07-16T23:40:30.867Z,20.73
2023-07-16T23:42:58.045Z,22.27
2023-07-16T23:45:25.475Z,21.45
2023-07-16T23:47:52.649Z,23.35
2023-07-16T23:50:20.081Z,24.87
2023-07-16T23:52:48.609Z,18.75
2023-07-16T23:55:18.174Z,22.50
2023-07-16T23:57:47.163Z,20.90
